KHOT/HOT METAR and TAF weather

Enter ICAO airport designator
Station Type Date Time Source
KHOT METAR 2022/07/03 14:53 UTC NOAA

KHOT 031453Z AUTO VRB03KT 10SM SCT013 BKN023 27/23 A3007 RMK AO2 SLP175 T02720228 51008 $


Station Type Date Time Source
KHOT Decoded METAR 2022/07/03 14:53 UTC NOAA

HOT SPRINGS MEMORIAL FIELD, AR, United States (KHOT) 34-29N 093-06W 162M
Jul 03, 2022 - 10:53 AM EDT / 2022.07.03 1453 UTC
Wind: Variable at 3 MPH (3 KT):0
Visibility: 10 mile(s):0
Sky conditions: mostly cloudy
Temperature: 81.0 F (27.2 C)
Dew Point: 73.0 F (22.8 C)
Relative Humidity: 76%
Pressure (altimeter): 30.07 in. Hg (1018 hPa)
Pressure tendency: 0.02 inches (0.8 hPa) higher than three hours ago
ob: KHOT 031453Z AUTO VRB03KT 10SM SCT013 BKN023 27/23 A3007 RMK AO2 SLP175 T02720228 51008
cycle: 15

Station Type Date Time Source
KHOT TAF 2022/07/03 12:22 UTC NOAA

TAF KHOT 031120Z 0312/0412 VRB04KT P6SM VCSH OVC007
FM031300 VRB05KT P6SM VCSH OVC020
FM031600 21002KT P6SM BKN050
FM040000 12002KT P6SM BKN250

Example: see airport list